Time;durP1;ratioP1;P1;durP2;ratioP2;P2;SDS_P1;SDS_P2;PMS_P1;PMS_P2;Temp;Humidity;BMP_temperature;BMP_pressure;BME280_temperature;BME280_humidity;BME280_pressure;Samples;Min_cycle;Max_cycle;Signal;HPM_P1;HPM_P2
2022/04/08 00:00:17;;;;;;;;;19.40;18.00;;;;;;;;5211660;28;8777;-66
2022/04/08 00:02:50;;;;;;;;;24.20;22.60;;;;;;;;5212103;28;8808;-67
2022/04/08 00:05:22;;;;;;;;;28.00;26.80;;;;;;;;5212120;28;8772;-67
2022/04/08 00:07:54;;;;;;;;;33.20;32.20;;;;;;;;5211765;28;8765;-67
2022/04/08 00:10:26;;;;;;;;;37.60;32.60;;;;;;;;5197878;28;8769;-67
2022/04/08 00:12:57;;;;;;;;;22.60;21.60;;;;;;;;5215844;28;8781;-67
2022/04/08 00:15:33;;;;;;;;;42.20;39.40;;;;;;;;5232834;28;8802;-66
2022/04/08 00:18:23;;;;;;;;;33.00;27.40;;;;;;;;5235264;28;8774;-66
2022/04/08 00:20:57;;;;;;;;;23.60;23.20;;;;;;;;5232320;28;8787;-67
2022/04/08 00:23:28;;;;;;;;;22.20;22.20;;;;;;;;5215719;28;9394;-67
2022/04/08 00:26:00;;;;;;;;;20.60;20.40;;;;;;;;5232121;28;9548;-66
2022/04/08 00:28:52;;;;;;;;;17.20;15.80;;;;;;;;5235206;28;8782;-66
2022/04/08 00:31:25;;;;;;;;;9.00;9.00;;;;;;;;5232599;28;8879;-66
2022/04/08 00:33:56;;;;;;;;;1.20;1.20;;;;;;;;5218214;28;8814;-66
2022/04/08 00:36:28;;;;;;;;;2.00;2.00;;;;;;;;5236273;28;8790;-66
2022/04/08 00:39:00;;;;;;;;;2.00;2.00;;;;;;;;5219559;28;8811;-66
2022/04/08 00:41:51;;;;;;;;;2.00;2.00;;;;;;;;5255907;28;8787;-66
2022/04/08 00:44:23;;;;;;;;;3.20;3.20;;;;;;;;5236291;28;8771;-66
2022/04/08 00:47:13;;;;;;;;;5.00;5.00;;;;;;;;5238426;28;8822;-66
2022/04/08 00:49:47;;;;;;;;;9.00;9.00;;;;;;;;5236382;28;8802;-66
2022/04/08 00:52:20;;;;;;;;;1.60;1.60;;;;;;;;5252607;28;8805;-67
2022/04/08 00:54:55;;;;;;;;;9.60;9.00;;;;;;;;5252454;28;8822;-67
2022/04/08 00:57:28;;;;;;;;;6.40;6.40;;;;;;;;5235767;28;8918;-67
2022/04/08 01:00:02;;;;;;;;;17.40;16.60;;;;;;;;5252816;28;8771;-67
2022/04/08 01:02:53;;;;;;;;;18.40;18.40;;;;;;;;5252826;28;8825;-68
2022/04/08 01:05:25;;;;;;;;;20.20;17.20;;;;;;;;5252859;28;8796;-68
2022/04/08 01:07:58;;;;;;;;;25.40;25.40;;;;;;;;5235792;28;8774;-68
2022/04/08 01:10:30;;;;;;;;;35.40;31.20;;;;;;;;5234996;28;8814;-67
2022/04/08 01:13:02;;;;;;;;;27.60;26.40;;;;;;;;5270580;28;8917;-67
2022/04/08 01:15:35;;;;;;;;;13.60;13.60;;;;;;;;5252156;28;8810;-67
2022/04/08 01:18:07;;;;;;;;;13.00;12.20;;;;;;;;5252049;28;8791;-66
2022/04/08 01:20:38;;;;;;;;;9.00;9.00;;;;;;;;5253047;28;8774;-67
2022/04/08 01:23:11;;;;;;;;;22.80;20.40;;;;;;;;5236019;28;8822;-66
2022/04/08 01:26:04;;;;;;;;;25.60;24.60;;;;;;;;5254894;28;9582;-67
2022/04/08 01:28:36;;;;;;;;;20.20;17.60;;;;;;;;5235282;28;8809;-66
2022/04/08 01:31:09;;;;;;;;;24.80;21.80;;;;;;;;5251776;28;8779;-66
2022/04/08 01:33:41;;;;;;;;;23.60;21.60;;;;;;;;5251870;28;8782;-68
2022/04/08 01:36:32;;;;;;;;;5.60;4.20;;;;;;;;5251573;28;9007;-68
2022/04/08 01:39:06;;;;;;;;;5.00;5.00;;;;;;;;5235381;28;8774;-68
2022/04/08 01:41:41;;;;;;;;;3.40;3.40;;;;;;;;5236018;28;8774;-67
2022/04/08 01:44:13;;;;;;;;;4.00;4.00;;;;;;;;5235047;28;8798;-67
2022/04/08 01:46:47;;;;;;;;;0.00;0.00;;;;;;;;5251365;28;8803;-67
2022/04/08 01:49:19;;;;;;;;;4.20;4.20;;;;;;;;5234915;28;8775;-67
2022/04/08 01:51:52;;;;;;;;;6.20;6.20;;;;;;;;5251349;28;8774;-68
2022/04/08 01:54:24;;;;;;;;;5.40;5.40;;;;;;;;5251414;28;9640;-68
2022/04/08 01:56:56;;;;;;;;;8.00;8.00;;;;;;;;5251544;28;8794;-68
2022/04/08 01:59:28;;;;;;;;;8.40;8.40;;;;;;;;5234933;28;9630;-68
2022/04/08 02:02:00;;;;;;;;;10.00;10.00;;;;;;;;5251767;28;8774;-68
2022/04/08 02:04:32;;;;;;;;;16.00;15.60;;;;;;;;5218629;28;8813;-68
2022/04/08 02:07:06;;;;;;;;;17.20;17.20;;;;;;;;5240195;28;8770;-68
2022/04/08 02:09:39;;;;;;;;;27.80;27.60;;;;;;;;5234456;28;8799;-70
2022/04/08 02:12:11;;;;;;;;;17.40;15.80;;;;;;;;5245918;28;8764;-67
2022/04/08 02:14:42;;;;;;;;;1.40;1.40;;;;;;;;5234211;28;8859;-66
2022/04/08 02:17:14;;;;;;;;;9.60;9.60;;;;;;;;5251573;28;8775;-67
2022/04/08 02:19:46;;;;;;;;;1.60;1.60;;;;;;;;5218100;28;8893;-67
2022/04/08 02:22:18;;;;;;;;;0.00;0.00;;;;;;;;5249857;28;8875;-64
2022/04/08 02:24:50;;;;;;;;;0.00;0.00;;;;;;;;5232712;28;8822;-66
2022/04/08 02:27:26;;;;;;;;;0.00;0.00;;;;;;;;5234505;28;9634;-66
2022/04/08 02:30:00;;;;;;;;;0.00;0.00;;;;;;;;5217668;28;8783;-65
2022/04/08 02:32:32;;;;;;;;;0.00;0.00;;;;;;;;5233756;28;9556;-65
2022/04/08 02:35:03;;;;;;;;;0.00;0.00;;;;;;;;5250536;28;8807;-66
2022/04/08 02:37:34;;;;;;;;;0.00;0.00;;;;;;;;5228386;28;9583;-65
2022/04/08 02:40:06;;;;;;;;;1.00;1.00;;;;;;;;5229249;28;8939;-67
2022/04/08 02:42:37;;;;;;;;;1.80;1.80;;;;;;;;5243415;28;9617;-67
2022/04/08 02:45:09;;;;;;;;;1.00;1.00;;;;;;;;5233646;28;8913;-67
2022/04/08 02:47:41;;;;;;;;;1.00;1.00;;;;;;;;5241472;28;8841;-67
2022/04/08 02:50:12;;;;;;;;;0.00;0.00;;;;;;;;5232200;28;8778;-67
2022/04/08 02:52:43;;;;;;;;;0.00;0.00;;;;;;;;5232279;28;9503;-67
2022/04/08 02:55:14;;;;;;;;;14.40;14.00;;;;;;;;5229272;28;9573;-67
2022/04/08 02:57:46;;;;;;;;;18.20;17.80;;;;;;;;5218024;28;9546;-67
2022/04/08 03:00:18;;;;;;;;;19.80;19.80;;;;;;;;5231203;28;8799;-67
2022/04/08 03:02:49;;;;;;;;;19.40;19.40;;;;;;;;5266904;28;8794;-67
2022/04/08 03:05:20;;;;;;;;;15.20;15.20;;;;;;;;5249014;28;8845;-66
2022/04/08 03:07:52;;;;;;;;;12.80;12.80;;;;;;;;5250102;28;8798;-67
2022/04/08 03:10:23;;;;;;;;;15.60;15.40;;;;;;;;5232458;28;8834;-66
2022/04/08 03:12:54;;;;;;;;;9.60;9.60;;;;;;;;5216713;28;8794;-66
2022/04/08 03:15:25;;;;;;;;;5.20;5.20;;;;;;;;5228916;28;9521;-67
2022/04/08 03:18:15;;;;;;;;;6.00;6.00;;;;;;;;5265084;28;8786;-67
2022/04/08 03:20:46;;;;;;;;;9.40;9.20;;;;;;;;5267694;28;8790;-68
2022/04/08 03:23:17;;;;;;;;;9.00;9.00;;;;;;;;5266601;28;8817;-68
2022/04/08 03:25:49;;;;;;;;;19.60;19.60;;;;;;;;5232684;28;8805;-68
2022/04/08 03:28:20;;;;;;;;;31.00;28.60;;;;;;;;5266525;28;8814;-68
2022/04/08 03:30:51;;;;;;;;;13.20;13.20;;;;;;;;5267381;28;8790;-67
2022/04/08 03:33:41;;;;;;;;;10.00;10.00;;;;;;;;5236346;28;8909;-66
2022/04/08 03:36:12;;;;;;;;;11.40;11.40;;;;;;;;5249812;28;8913;-66
2022/04/08 03:38:44;;;;;;;;;12.00;9.80;;;;;;;;5233407;28;8769;-66
2022/04/08 03:41:15;;;;;;;;;6.80;6.80;;;;;;;;5266574;28;8786;-67
2022/04/08 03:43:48;;;;;;;;;6.40;6.40;;;;;;;;5248893;28;8801;-66
2022/04/08 03:46:20;;;;;;;;;2.60;2.60;;;;;;;;5267131;28;9213;-67
2022/04/08 03:48:52;;;;;;;;;4.20;4.20;;;;;;;;5232452;28;8871;-67
2022/04/08 03:51:24;;;;;;;;;9.80;9.80;;;;;;;;5232705;28;8805;-67
2022/04/08 03:53:56;;;;;;;;;10.20;10.20;;;;;;;;5232692;28;8794;-67
2022/04/08 03:56:29;;;;;;;;;8.80;8.80;;;;;;;;5232663;28;8779;-66
2022/04/08 03:59:18;;;;;;;;;57.80;46.80;;;;;;;;5252404;28;8782;-67
2022/04/08 04:01:49;;;;;;;;;11.20;11.20;;;;;;;;5249042;28;8791;-65
2022/04/08 04:04:20;;;;;;;;;6.20;6.20;;;;;;;;5249151;28;8834;-65
2022/04/08 04:06:53;;;;;;;;;11.20;11.20;;;;;;;;5267695;28;8779;-66
2022/04/08 04:09:26;;;;;;;;;7.00;7.00;;;;;;;;5216577;28;8799;-67
2022/04/08 04:11:57;;;;;;;;;18.60;18.60;;;;;;;;5234283;28;8912;-67
2022/04/08 04:14:29;;;;;;;;;22.60;22.60;;;;;;;;5249545;28;8902;-67
2022/04/08 04:17:20;;;;;;;;;15.20;15.20;;;;;;;;5251868;28;8778;-67
2022/04/08 04:19:51;;;;;;;;;14.40;13.80;;;;;;;;5244616;28;8801;-67
2022/04/08 04:22:22;;;;;;;;;10.80;10.80;;;;;;;;5261781;28;8780;-67
2022/04/08 04:24:54;;;;;;;;;6.40;6.40;;;;;;;;5228817;28;8812;-67
2022/04/08 04:27:25;;;;;;;;;5.20;5.20;;;;;;;;5222775;28;8806;-66
2022/04/08 04:29:57;;;;;;;;;2.00;2.00;;;;;;;;5249140;28;8778;-65
2022/04/08 04:32:29;;;;;;;;;4.20;4.20;;;;;;;;5249206;28;8778;-66
2022/04/08 04:35:06;;;;;;;;;9.60;9.60;;;;;;;;5248433;28;8834;-66
2022/04/08 04:37:39;;;;;;;;;11.00;11.00;;;;;;;;5250036;28;8798;-66
2022/04/08 04:40:11;;;;;;;;;8.00;8.00;;;;;;;;5232764;28;9006;-66
2022/04/08 04:42:43;;;;;;;;;23.60;23.00;;;;;;;;5266690;28;8793;-66
2022/04/08 04:45:18;;;;;;;;;21.00;20.80;;;;;;;;5248551;28;8794;-66
2022/04/08 04:47:51;;;;;;;;;41.00;37.60;;;;;;;;5232196;28;8813;-66
2022/04/08 04:50:24;;;;;;;;;34.80;33.40;;;;;;;;5215862;28;8774;-66
2022/04/08 04:52:56;;;;;;;;;7.00;7.00;;;;;;;;5232232;28;8751;-66
2022/04/08 04:55:27;;;;;;;;;9.20;9.20;;;;;;;;5249061;28;8812;-66
2022/04/08 04:58:01;;;;;;;;;8.20;8.20;;;;;;;;5215415;28;8929;-67
2022/04/08 05:00:32;;;;;;;;;7.20;7.20;;;;;;;;5247567;28;8775;-67
2022/04/08 05:03:05;;;;;;;;;7.40;7.40;;;;;;;;5249162;28;9492;-67
2022/04/08 05:05:37;;;;;;;;;16.80;15.80;;;;;;;;5227586;28;8796;-67
2022/04/08 05:08:09;;;;;;;;;15.20;14.40;;;;;;;;5216877;28;8771;-67
2022/04/08 05:10:40;;;;;;;;;11.60;11.60;;;;;;;;5211536;28;8928;-68
2022/04/08 05:13:12;;;;;;;;;28.80;28.60;;;;;;;;5228041;28;8777;-64
2022/04/08 05:15:45;;;;;;;;;39.80;33.80;;;;;;;;5227991;28;8796;-64
2022/04/08 05:18:17;;;;;;;;;41.40;39.40;;;;;;;;5211274;28;8777;-65
2022/04/08 05:20:52;;;;;;;;;24.60;22.00;;;;;;;;5230117;28;8861;-64
2022/04/08 05:23:28;;;;;;;;;11.80;11.80;;;;;;;;5218416;28;8802;-64
2022/04/08 05:26:01;;;;;;;;;7.40;7.40;;;;;;;;5250630;28;8786;-66
2022/04/08 05:28:32;;;;;;;;;10.00;10.00;;;;;;;;5250577;28;9609;-64
2022/04/08 05:31:03;;;;;;;;;16.60;16.60;;;;;;;;5250086;28;8814;-66
2022/04/08 05:33:36;;;;;;;;;23.60;22.40;;;;;;;;5266992;28;8791;-66
2022/04/08 05:36:08;;;;;;;;;18.40;17.80;;;;;;;;5249892;28;8798;-65
2022/04/08 05:38:58;;;;;;;;;18.00;18.00;;;;;;;;5235808;28;8797;-65
2022/04/08 05:41:29;;;;;;;;;23.40;22.00;;;;;;;;5249954;28;8786;-64
2022/04/08 05:44:01;;;;;;;;;17.40;17.40;;;;;;;;5233190;28;8941;-66
2022/04/08 05:46:32;;;;;;;;;21.60;21.20;;;;;;;;5249724;28;8794;-65
2022/04/08 05:49:04;;;;;;;;;25.60;25.60;;;;;;;;5232629;28;8771;-64
2022/04/08 05:51:35;;;;;;;;;22.60;22.60;;;;;;;;5268081;28;8778;-65
2022/04/08 05:54:07;;;;;;;;;24.00;24.00;;;;;;;;5267703;28;9586;-66
2022/04/08 05:56:39;;;;;;;;;20.80;20.80;;;;;;;;5249402;28;8831;-65
2022/04/08 05:59:10;;;;;;;;;15.20;15.20;;;;;;;;5199012;28;8802;-65
2022/04/08 06:01:41;;;;;;;;;6.20;6.20;;;;;;;;5215510;28;8794;-65
2022/04/08 06:04:12;;;;;;;;;8.20;7.80;;;;;;;;5264757;28;8821;-65
2022/04/08 06:07:02;;;;;;;;;15.40;15.40;;;;;;;;5245627;28;9529;-64
2022/04/08 06:09:33;;;;;;;;;16.75;16.00;;;;;;;;5268625;28;8778;-64
2022/04/08 06:12:04;;;;;;;;;21.20;21.20;;;;;;;;5230978;28;11479;-64
2022/04/08 06:14:35;;;;;;;;;28.80;28.00;;;;;;;;5230426;28;8781;-64
2022/04/08 06:17:07;;;;;;;;;33.80;33.80;;;;;;;;5230321;28;8799;-64
2022/04/08 06:19:38;;;;;;;;;21.00;21.00;;;;;;;;5230267;28;8769;-64
2022/04/08 06:22:27;;;;;;;;;46.60;41.80;;;;;;;;5267354;28;8767;-64
2022/04/08 06:24:59;;;;;;;;;14.40;14.40;;;;;;;;5268891;28;9031;-64
2022/04/08 06:27:30;;;;;;;;;13.00;13.00;;;;;;;;5234303;28;8802;-64
2022/04/08 06:30:19;;;;;;;;;5.80;5.80;;;;;;;;5268289;28;8770;-64
2022/04/08 06:32:50;;;;;;;;;9.80;9.60;;;;;;;;5268762;28;8791;-63
2022/04/08 06:35:40;;;;;;;;;3.00;3.00;;;;;;;;5236396;28;8814;-63
2022/04/08 06:38:11;;;;;;;;;5.50;5.50;;;;;;;;5250727;28;8767;-64
2022/04/08 06:40:42;;;;;;;;;3.80;3.80;;;;;;;;5250347;28;8786;-64
2022/04/08 06:43:13;;;;;;;;;11.00;11.00;;;;;;;;5250839;28;8778;-64
2022/04/08 06:45:44;;;;;;;;;11.80;11.80;;;;;;;;5250277;28;11475;-64
2022/04/08 06:48:15;;;;;;;;;18.60;18.60;;;;;;;;5233923;28;8844;-64
2022/04/08 06:51:05;;;;;;;;;63.60;52.60;;;;;;;;5252705;28;8837;-63
2022/04/08 06:53:36;;;;;;;;;36.40;34.20;;;;;;;;5233907;28;8801;-64
2022/04/08 06:56:08;;;;;;;;;27.00;27.00;;;;;;;;5233368;28;8810;-64
2022/04/08 06:58:40;;;;;;;;;17.80;17.20;;;;;;;;5268341;28;8822;-64
2022/04/08 07:01:30;;;;;;;;;19.80;19.20;;;;;;;;5253067;28;8790;-63
2022/04/08 07:04:02;;;;;;;;;23.20;21.60;;;;;;;;5229445;28;8805;-63
2022/04/08 07:06:33;;;;;;;;;13.00;13.00;;;;;;;;5262701;28;8837;-65
2022/04/08 07:09:04;;;;;;;;;13.00;13.00;;;;;;;;5245887;28;8803;-62
2022/04/08 07:11:36;;;;;;;;;12.00;12.00;;;;;;;;5262945;28;8788;-64
2022/04/08 07:14:07;;;;;;;;;7.00;7.00;;;;;;;;5238196;28;8821;-64
2022/04/08 07:16:41;;;;;;;;;27.20;27.20;;;;;;;;5229317;28;9561;-64
2022/04/08 07:19:12;;;;;;;;;33.80;33.20;;;;;;;;5228811;28;8789;-64
2022/04/08 07:21:44;;;;;;;;;45.20;41.40;;;;;;;;5245637;28;8922;-64
2022/04/08 07:24:15;;;;;;;;;42.00;38.50;;;;;;;;5229318;28;9627;-64
2022/04/08 07:26:46;;;;;;;;;33.00;32.20;;;;;;;;5232998;28;8854;-64
2022/04/08 07:29:17;;;;;;;;;25.20;25.20;;;;;;;;5249890;28;9497;-64
2022/04/08 07:31:48;;;;;;;;;23.80;23.00;;;;;;;;5249981;28;9536;-64
2022/04/08 07:34:19;;;;;;;;;37.40;36.00;;;;;;;;5248575;28;8818;-64
2022/04/08 07:36:52;;;;;;;;;19.20;19.20;;;;;;;;5266226;28;8811;-64
2022/04/08 07:39:30;;;;;;;;;21.40;19.60;;;;;;;;5228534;28;9612;-64
2022/04/08 07:42:04;;;;;;;;;16.00;16.00;;;;;;;;5228712;28;8822;-64
2022/04/08 07:44:37;;;;;;;;;24.20;22.00;;;;;;;;5254359;28;8805;-64
2022/04/08 07:47:08;;;;;;;;;19.00;19.00;;;;;;;;5248975;28;8814;-64
2022/04/08 07:49:39;;;;;;;;;8.60;7.80;;;;;;;;5249475;28;8797;-64
2022/04/08 07:52:10;;;;;;;;;6.20;6.20;;;;;;;;5267618;28;8806;-64
2022/04/08 07:54:43;;;;;;;;;4.20;4.20;;;;;;;;5231904;28;8804;-63
2022/04/08 07:57:14;;;;;;;;;8.00;8.00;;;;;;;;5207608;28;8912;-64
2022/04/08 07:59:45;;;;;;;;;7.00;7.00;;;;;;;;5224741;28;8770;-64
2022/04/08 08:02:15;;;;;;;;;8.00;7.25;;;;;;;;5225048;28;8786;-64
2022/04/08 08:04:47;;;;;;;;;20.40;19.40;;;;;;;;5225979;28;10263;-64
2022/04/08 08:07:18;;;;;;;;;23.00;22.80;;;;;;;;5207976;28;8835;-64
2022/04/08 08:09:49;;;;;;;;;21.00;21.00;;;;;;;;5224659;28;8778;-64
2022/04/08 08:12:20;;;;;;;;;17.00;17.00;;;;;;;;5224407;28;8784;-64
2022/04/08 08:14:52;;;;;;;;;32.00;32.00;;;;;;;;5224325;28;8848;-64
2022/04/08 08:17:24;;;;;;;;;18.80;18.80;;;;;;;;5191286;28;10709;-64
2022/04/08 08:19:55;;;;;;;;;30.40;30.40;;;;;;;;5224634;28;9524;-64
2022/04/08 08:22:26;;;;;;;;;30.00;27.20;;;;;;;;5224435;28;8769;-64
2022/04/08 08:24:57;;;;;;;;;23.00;22.80;;;;;;;;5224427;28;8809;-64
2022/04/08 08:27:48;;;;;;;;;26.20;25.80;;;;;;;;5210718;28;8770;-64
2022/04/08 08:30:19;;;;;;;;;17.80;17.40;;;;;;;;5191536;28;8912;-64
2022/04/08 08:32:50;;;;;;;;;13.80;13.80;;;;;;;;5207953;28;8960;-64
2022/04/08 08:35:40;;;;;;;;;26.20;25.20;;;;;;;;5225683;28;8805;-64
2022/04/08 08:38:11;;;;;;;;;22.50;21.50;;;;;;;;5224094;28;8798;-64
2022/04/08 08:40:43;;;;;;;;;30.25;29.50;;;;;;;;5224150;28;8778;-64
2022/04/08 08:43:20;;;;;;;;;19.20;19.20;;;;;;;;5191309;28;8773;-65
2022/04/08 08:45:55;;;;;;;;;14.60;14.60;;;;;;;;5224567;28;8789;-64
2022/04/08 08:48:30;;;;;;;;;15.20;15.20;;;;;;;;5191321;28;9633;-64
2022/04/08 08:51:02;;;;;;;;;17.80;17.80;;;;;;;;5191133;28;8817;-64
2022/04/08 08:53:33;;;;;;;;;20.60;20.60;;;;;;;;5224476;28;9624;-64
2022/04/08 08:56:07;;;;;;;;;19.00;18.20;;;;;;;;5227897;28;8833;-65
2022/04/08 08:58:39;;;;;;;;;29.40;29.40;;;;;;;;5214419;28;9550;-65
2022/04/08 09:01:28;;;;;;;;;26.00;25.20;;;;;;;;5250118;28;8777;-65
2022/04/08 09:03:59;;;;;;;;;25.75;25.75;;;;;;;;5232332;28;8780;-64
2022/04/08 09:06:48;;;;;;;;;19.40;19.40;;;;;;;;5249991;28;10016;-65
2022/04/08 09:09:31;;;;;;;;;23.75;23.75;;;;;;;;5231920;28;8781;-65
2022/04/08 09:12:13;;;;;;;;;20.20;20.20;;;;;;;;5248485;28;8788;-65
2022/04/08 09:14:49;;;;;;;;;70.40;57.40;;;;;;;;5231264;28;8831;-65
2022/04/08 09:17:40;;;;;;;;;18.00;17.60;;;;;;;;5248703;28;8781;-65
2022/04/08 09:20:12;;;;;;;;;15.80;15.80;;;;;;;;5231554;28;8821;-65
2022/04/08 09:22:43;;;;;;;;;20.80;20.80;;;;;;;;5249515;28;8819;-65
2022/04/08 09:25:33;;;;;;;;;23.60;23.40;;;;;;;;5248211;28;8772;-65
2022/04/08 09:28:05;;;;;;;;;22.80;22.80;;;;;;;;5231563;28;8797;-65
2022/04/08 09:30:37;;;;;;;;;18.60;18.60;;;;;;;;5231622;28;8803;-65
2022/04/08 09:33:12;;;;;;;;;13.60;13.60;;;;;;;;5231394;28;8793;-65
2022/04/08 09:36:02;;;;;;;;;16.40;16.40;;;;;;;;5249462;28;8800;-65
2022/04/08 09:38:34;;;;;;;;;11.75;11.75;;;;;;;;5249477;28;9511;-65
2022/04/08 09:41:07;;;;;;;;;17.00;17.00;;;;;;;;5231762;28;8777;-65
2022/04/08 09:43:39;;;;;;;;;22.40;22.20;;;;;;;;5231046;28;8793;-65
2022/04/08 09:46:18;;;;;;;;;29.80;28.60;;;;;;;;5231109;28;8854;-65
2022/04/08 09:48:49;;;;;;;;;27.80;23.60;;;;;;;;5231265;28;8788;-65
2022/04/08 09:51:21;;;;;;;;;29.00;27.60;;;;;;;;5214290;28;8781;-65
2022/04/08 09:53:57;;;;;;;;;45.60;38.20;;;;;;;;5230794;28;8861;-65
2022/04/08 09:56:28;;;;;;;;;18.00;17.80;;;;;;;;5230630;28;8769;-65
2022/04/08 09:59:05;;;;;;;;;14.00;14.00;;;;;;;;5214494;28;8809;-65
2022/04/08 10:01:37;;;;;;;;;17.00;16.80;;;;;;;;5230623;28;8813;-65
2022/04/08 10:04:09;;;;;;;;;14.60;14.60;;;;;;;;5247207;28;8803;-65
2022/04/08 10:06:41;;;;;;;;;20.80;20.80;;;;;;;;5213721;28;8782;-66
2022/04/08 10:09:13;;;;;;;;;18.60;17.00;;;;;;;;5230525;28;8781;-65
2022/04/08 10:11:57;;;;;;;;;12.40;12.40;;;;;;;;5247637;28;8796;-65
2022/04/08 10:14:44;;;;;;;;;25.40;25.40;;;;;;;;5231009;28;8812;-65
2022/04/08 10:17:17;;;;;;;;;33.40;32.20;;;;;;;;5228992;28;8793;-65
2022/04/08 10:20:23;;;;;;;;;32.60;31.60;;;;;;;;5230506;28;8804;-65
2022/04/08 10:23:09;;;;;;;;;13.80;13.80;;;;;;;;5230636;28;8780;-65
2022/04/08 10:25:41;;;;;;;;;15.60;15.00;;;;;;;;5246508;28;8800;-65
2022/04/08 10:28:13;;;;;;;;;7.00;7.00;;;;;;;;5246410;28;8908;-65
2022/04/08 10:30:45;;;;;;;;;13.60;13.60;;;;;;;;5265956;28;8790;-65
2022/04/08 10:33:26;;;;;;;;;13.40;13.40;;;;;;;;5217166;28;8875;-65
2022/04/08 10:36:03;;;;;;;;;16.80;16.80;;;;;;;;5233858;28;8814;-65
2022/04/08 10:38:52;;;;;;;;;16.60;15.20;;;;;;;;5253446;28;8766;-65
2022/04/08 10:41:23;;;;;;;;;11.75;11.75;;;;;;;;5267902;28;8791;-65
2022/04/08 10:43:54;;;;;;;;;8.20;8.20;;;;;;;;5250617;28;10059;-65
2022/04/08 10:46:29;;;;;;;;;14.50;14.50;;;;;;;;5250300;28;8775;-65
2022/04/08 10:49:00;;;;;;;;;14.40;14.40;;;;;;;;5245911;28;11032;-65
2022/04/08 10:51:32;;;;;;;;;17.80;17.40;;;;;;;;5196770;28;8922;-65
2022/04/08 10:54:04;;;;;;;;;14.00;14.00;;;;;;;;5229573;28;8780;-65
2022/04/08 10:56:35;;;;;;;;;19.60;19.00;;;;;;;;5212309;28;8785;-65
2022/04/08 10:59:06;;;;;;;;;15.75;15.75;;;;;;;;5212829;28;8842;-65
2022/04/08 11:01:46;;;;;;;;;13.80;13.20;;;;;;;;5229505;28;11490;-65
2022/04/08 11:04:17;;;;;;;;;7.60;7.60;;;;;;;;5244574;28;8802;-65
2022/04/08 11:06:49;;;;;;;;;17.80;17.40;;;;;;;;5216793;28;8779;-65
2022/04/08 11:09:38;;;;;;;;;13.20;13.20;;;;;;;;5247087;28;8776;-65
2022/04/08 11:12:09;;;;;;;;;21.60;21.60;;;;;;;;5248582;28;8802;-66
2022/04/08 11:14:59;;;;;;;;;20.00;19.80;;;;;;;;5252080;28;8822;-65
2022/04/08 11:17:35;;;;;;;;;23.20;22.80;;;;;;;;5266879;28;8770;-65
2022/04/08 11:20:09;;;;;;;;;15.20;15.20;;;;;;;;5216556;28;8759;-66
2022/04/08 11:22:40;;;;;;;;;15.60;15.20;;;;;;;;5216250;28;8806;-65
2022/04/08 11:25:19;;;;;;;;;22.00;21.00;;;;;;;;5216196;28;8806;-65
2022/04/08 11:28:17;;;;;;;;;23.40;23.00;;;;;;;;5245112;28;8819;-65
2022/04/08 11:31:06;;;;;;;;;21.40;21.40;;;;;;;;5245561;28;8856;-65
2022/04/08 11:33:39;;;;;;;;;22.60;22.60;;;;;;;;5212035;28;8772;-65
2022/04/08 11:36:28;;;;;;;;;11.80;11.20;;;;;;;;5245326;28;8792;-66
2022/04/08 11:39:21;;;;;;;;;21.00;21.00;;;;;;;;5245654;28;8807;-66
2022/04/08 11:41:53;;;;;;;;;11.40;11.40;;;;;;;;5195735;28;8894;-65
2022/04/08 11:44:25;;;;;;;;;23.80;23.00;;;;;;;;5221450;28;8847;-66
2022/04/08 11:47:06;;;;;;;;;16.40;16.00;;;;;;;;5243644;28;8837;-66
2022/04/08 11:50:06;;;;;;;;;18.00;17.40;;;;;;;;5249303;28;8848;-66
2022/04/08 11:52:37;;;;;;;;;13.40;13.40;;;;;;;;5249082;28;8790;-65
2022/04/08 11:55:09;;;;;;;;;18.20;18.20;;;;;;;;5266991;28;8799;-66
2022/04/08 11:57:41;;;;;;;;;14.00;13.60;;;;;;;;5215738;28;9611;-66
2022/04/08 12:00:12;;;;;;;;;19.80;19.80;;;;;;;;5232443;28;8838;-66
2022/04/08 12:02:43;;;;;;;;;29.00;29.00;;;;;;;;5249115;28;8798;-66
2022/04/08 12:05:18;;;;;;;;;27.60;27.00;;;;;;;;5232335;28;8794;-66
2022/04/08 12:07:49;;;;;;;;;17.40;17.40;;;;;;;;5266669;28;8924;-67
2022/04/08 12:10:39;;;;;;;;;17.00;17.00;;;;;;;;5235028;28;8785;-65
2022/04/08 12:13:17;;;;;;;;;15.75;15.75;;;;;;;;5249135;28;8851;-65
2022/04/08 12:15:49;;;;;;;;;14.25;14.25;;;;;;;;5267066;28;9528;-66
2022/04/08 12:18:51;;;;;;;;;17.75;17.75;;;;;;;;5252216;28;8786;-67
2022/04/08 12:21:26;;;;;;;;;16.25;16.25;;;;;;;;5249297;28;8794;-66
2022/04/08 12:24:01;;;;;;;;;15.25;15.00;;;;;;;;5227961;28;8919;-66
2022/04/08 12:26:36;;;;;;;;;17.00;17.00;;;;;;;;5246176;28;8927;-65
2022/04/08 12:29:29;;;;;;;;;23.40;23.40;;;;;;;;5216242;28;8765;-65
2022/04/08 12:32:01;;;;;;;;;27.00;26.20;;;;;;;;5199450;28;9588;-65
2022/04/08 12:34:50;;;;;;;;;24.40;23.20;;;;;;;;5218226;28;8931;-66
2022/04/08 12:37:21;;;;;;;;;31.00;30.00;;;;;;;;5200730;28;9025;-66
2022/04/08 12:39:52;;;;;;;;;35.00;33.60;;;;;;;;5219732;28;11517;-65
2022/04/08 12:42:23;;;;;;;;;22.75;22.50;;;;;;;;5235868;28;8797;-65
2022/04/08 12:44:54;;;;;;;;;23.80;22.80;;;;;;;;5271024;28;9078;-65
2022/04/08 12:47:25;;;;;;;;;16.75;15.75;;;;;;;;5270946;28;8822;-66
2022/04/08 12:49:56;;;;;;;;;20.00;20.00;;;;;;;;5252748;28;8794;-66
2022/04/08 12:52:27;;;;;;;;;20.50;20.50;;;;;;;;5270960;28;11526;-65
2022/04/08 12:54:57;;;;;;;;;15.60;14.80;;;;;;;;5268823;28;8838;-65
2022/04/08 12:57:49;;;;;;;;;13.00;13.00;;;;;;;;5270700;28;8802;-65
2022/04/08 13:00:20;;;;;;;;;13.40;13.40;;;;;;;;5235866;28;8791;-66
2022/04/08 13:02:54;;;;;;;;;22.60;22.00;;;;;;;;5268567;28;8805;-65
2022/04/08 13:05:26;;;;;;;;;21.00;20.00;;;;;;;;5219343;28;8899;-67
2022/04/08 13:07:57;;;;;;;;;23.20;23.20;;;;;;;;5219066;28;8790;-66
2022/04/08 13:10:28;;;;;;;;;17.40;15.40;;;;;;;;5252471;28;8789;-65
2022/04/08 13:12:58;;;;;;;;;26.25;26.25;;;;;;;;5252502;28;8774;-65
2022/04/08 13:15:29;;;;;;;;;27.75;26.75;;;;;;;;5270153;28;8817;-66
2022/04/08 13:18:01;;;;;;;;;17.00;17.00;;;;;;;;5235417;28;11492;-65
2022/04/08 13:20:33;;;;;;;;;15.40;15.40;;;;;;;;5269688;28;8802;-65
2022/04/08 13:23:04;;;;;;;;;17.00;16.60;;;;;;;;5218820;28;8810;-65
2022/04/08 13:25:35;;;;;;;;;14.50;14.50;;;;;;;;5264755;28;8826;-66
2022/04/08 13:28:08;;;;;;;;;16.00;16.00;;;;;;;;5233921;28;9947;-68
2022/04/08 13:30:43;;;;;;;;;23.00;23.00;;;;;;;;5243321;28;8956;-65
2022/04/08 13:33:14;;;;;;;;;22.40;22.40;;;;;;;;5234058;28;9014;-65
2022/04/08 13:35:45;;;;;;;;;29.80;29.80;;;;;;;;5234990;28;8795;-65
2022/04/08 13:38:35;;;;;;;;;25.80;25.80;;;;;;;;5285977;28;8796;-66
2022/04/08 13:41:06;;;;;;;;;26.00;26.00;;;;;;;;5245107;28;8811;-65
2022/04/08 13:43:37;;;;;;;;;25.50;25.50;;;;;;;;5235891;28;8833;-66
2022/04/08 13:46:08;;;;;;;;;15.00;15.00;;;;;;;;5251685;28;8845;-66
2022/04/08 13:48:38;;;;;;;;;14.25;14.25;;;;;;;;5251609;28;8872;-65
2022/04/08 13:51:28;;;;;;;;;17.20;17.20;;;;;;;;5269824;28;11475;-66
2022/04/08 13:53:59;;;;;;;;;19.25;19.25;;;;;;;;5269149;28;8790;-66
2022/04/08 13:56:48;;;;;;;;;16.00;16.00;;;;;;;;5254073;28;9224;-66
2022/04/08 13:59:19;;;;;;;;;20.00;20.00;;;;;;;;5269505;28;8770;-65
2022/04/08 14:01:50;;;;;;;;;11.80;11.80;;;;;;;;5234365;28;8778;-66
2022/04/08 14:04:21;;;;;;;;;24.20;23.80;;;;;;;;5245463;28;8801;-66
2022/04/08 14:07:11;;;;;;;;;36.00;34.60;;;;;;;;5230097;28;8846;-65
2022/04/08 14:09:42;;;;;;;;;21.40;21.40;;;;;;;;5250089;28;8849;-66
2022/04/08 14:12:13;;;;;;;;;16.80;16.80;;;;;;;;5213246;28;8801;-66
2022/04/08 14:14:45;;;;;;;;;12.20;12.20;;;;;;;;5229648;28;8819;-66
2022/04/08 14:17:16;;;;;;;;;14.00;14.00;;;;;;;;5207776;28;8789;-66
2022/04/08 14:19:46;;;;;;;;;18.00;15.75;;;;;;;;5213603;28;8792;-66
2022/04/08 14:22:18;;;;;;;;;13.80;13.40;;;;;;;;5230123;28;8785;-66
2022/04/08 14:24:49;;;;;;;;;13.00;13.00;;;;;;;;5246827;28;8776;-66
2022/04/08 14:27:20;;;;;;;;;9.20;9.20;;;;;;;;5244285;28;8859;-66
2022/04/08 14:29:51;;;;;;;;;15.00;15.00;;;;;;;;5250779;28;8772;-66
2022/04/08 14:32:22;;;;;;;;;46.80;41.00;;;;;;;;5250700;28;11399;-66
2022/04/08 14:34:53;;;;;;;;;16.40;16.40;;;;;;;;5250549;28;9526;-65
2022/04/08 14:37:23;;;;;;;;;16.75;16.75;;;;;;;;5268320;28;8813;-65
2022/04/08 14:39:54;;;;;;;;;33.00;31.60;;;;;;;;5250150;28;8787;-65
2022/04/08 14:42:25;;;;;;;;;29.75;28.75;;;;;;;;5250293;28;8785;-66
2022/04/08 14:44:56;;;;;;;;;19.25;19.25;;;;;;;;5250925;28;8912;-66
2022/04/08 14:47:28;;;;;;;;;20.50;20.50;;;;;;;;5251376;28;8888;-66
2022/04/08 14:50:18;;;;;;;;;11.00;11.00;;;;;;;;5246017;28;8802;-66
2022/04/08 14:52:50;;;;;;;;;10.25;10.25;;;;;;;;5241923;28;8802;-66
2022/04/08 14:55:39;;;;;;;;;9.00;9.00;;;;;;;;5236193;28;8814;-65
2022/04/08 14:58:11;;;;;;;;;9.00;9.00;;;;;;;;5266971;28;8835;-65
2022/04/08 15:00:41;;;;;;;;;9.60;9.60;;;;;;;;5233095;28;10771;-66
2022/04/08 15:03:14;;;;;;;;;4.00;4.00;;;;;;;;5227044;28;8853;-65
2022/04/08 15:06:03;;;;;;;;;8.50;8.50;;;;;;;;5239810;28;8791;-65
2022/04/08 15:08:34;;;;;;;;;22.25;21.50;;;;;;;;5248152;28;8786;-66
2022/04/08 15:11:06;;;;;;;;;10.80;10.80;;;;;;;;5265890;28;11474;-65
2022/04/08 15:13:55;;;;;;;;;5.60;5.60;;;;;;;;5250555;28;8860;-65
2022/04/08 15:16:26;;;;;;;;;12.60;12.60;;;;;;;;5232560;28;8817;-65
2022/04/08 15:18:57;;;;;;;;;11.60;10.60;;;;;;;;5232185;28;8778;-65